Hawk — LAGF7 — position and weather

sailwx.info

Track history (hours):
 
Tides and Currents Weather Stations Pressure Air Temp Water Temp Dewpoint Dewpoint Depression Visibility Wind Speed Wind Dir Waves Ship Positions

Hawk

Last reported at 2014-Sep-14 15:28 UTC. Time now 2014-Sep-19 21:55 UTC.
Position S 30°32' E 016°17'.

Length 223 m; draft 10.8 m.

Type: Cargo ship. MMSI: 259848000.

Date/timePositionNaut miles runAvg speedWind from/ knotsBaromVisibWave heightAir tempDewpointWater temp
2014-Sep-14 15:28S 30°32' E 016°17'5012.8
2014-Sep-14 11:31S 31°18' E 016°40'1412.7
2014-Sep-14 10:28S 31°31' E 016°46'2612.8
2014-Sep-14 08:27S 31°54' E 016°57'1112.6
2014-Sep-14 07:33S 32°05' E 017°02'2612.3
2014-Sep-14 05:25S 32°29' E 017°14'4012.7
2014-Sep-14 02:15S 33°06' E 017°33'1412.6
2014-Sep-14 01:07S 33°19' E 017°39'4512.6
2014-Sep-13 21:33S 34°01' E 018°00'1312.7
2014-Sep-13 20:34S 34°12' E 018°06'1713.3
2014-Sep-13 19:15S 34°28' E 018°14'811.6
2014-Sep-13 18:34S 34°32' E 018°23'1111.2
2014-Sep-13 17:33S 34°36' E 018°35'1111.1
2014-Sep-13 16:34S 34°40' E 018°48'1010.2
2014-Sep-13 15:33S 34°44' E 018°60'10 9.9
2014-Sep-13 14:32S 34°47' E 019°11'10 9.2
2014-Sep-13 13:23S 34°51' E 019°23'8 8.7
2014-Sep-13 12:31S 34°53' E 019°32'9 8.6
2014-Sep-13 11:31S 34°56' E 019°42'50 8.2
2014-Sep-13 05:27S 34°57' E 020°42'8 7.8
2014-Sep-13 04:22S 34°57' E 020°53'53 7.7
2014-Sep-12 21:27S 34°49' E 021°57'12 8.9
2014-Sep-12 20:08S 34°47' E 022°11'121 8.1
2014-Sep-12 05:11S 34°30' E 024°37'7 6.9
2014-Sep-12 04:14S 34°29' E 024°45'11211.1
2014-Sep-11 18:14S 33°49' E 026°51'1211.5
2014-Sep-11 17:12S 33°45' E 027°04'1910.9
2014-Sep-11 15:29S 33°36' E 027°24'12213.5
2014-Sep-11 06:25S 32°26' E 029°24'  
Track history (hours):
 
Tides and Currents Weather Stations Pressure Air Temp Water Temp Dewpoint Dewpoint Depression Visibility Wind Speed Wind Dir Waves Ship Positions

Hawk

Last reported at 2014-Sep-14 15:28 UTC. Time now 2014-Sep-19 21:55 UTC.
Position S 30°32' E 016°17'.

Length 223 m; draft 10.8 m.

Type: Cargo ship. MMSI: 259848000.

Date/timePositionNaut miles runAvg speedWind from/ knotsBaromVisibWave heightAir tempDewpointWater temp
2014-Sep-14 15:28S 30°32' E 016°17'5012.8
2014-Sep-14 11:31S 31°18' E 016°40'1412.7
2014-Sep-14 10:28S 31°31' E 016°46'2612.8
2014-Sep-14 08:27S 31°54' E 016°57'1112.6
2014-Sep-14 07:33S 32°05' E 017°02'2612.3
2014-Sep-14 05:25S 32°29' E 017°14'4012.7
2014-Sep-14 02:15S 33°06' E 017°33'1412.6
2014-Sep-14 01:07S 33°19' E 017°39'4512.6
2014-Sep-13 21:33S 34°01' E 018°00'1312.7
2014-Sep-13 20:34S 34°12' E 018°06'1713.3
2014-Sep-13 19:15S 34°28' E 018°14'811.6
2014-Sep-13 18:34S 34°32' E 018°23'1111.2
2014-Sep-13 17:33S 34°36' E 018°35'1111.1
2014-Sep-13 16:34S 34°40' E 018°48'1010.2
2014-Sep-13 15:33S 34°44' E 018°60'10 9.9
2014-Sep-13 14:32S 34°47' E 019°11'10 9.2
2014-Sep-13 13:23S 34°51' E 019°23'8 8.7
2014-Sep-13 12:31S 34°53' E 019°32'9 8.6
2014-Sep-13 11:31S 34°56' E 019°42'50 8.2
2014-Sep-13 05:27S 34°57' E 020°42'8 7.8
2014-Sep-13 04:22S 34°57' E 020°53'53 7.7
2014-Sep-12 21:27S 34°49' E 021°57'12 8.9
2014-Sep-12 20:08S 34°47' E 022°11'121 8.1
2014-Sep-12 05:11S 34°30' E 024°37'7 6.9
2014-Sep-12 04:14S 34°29' E 024°45'11211.1
2014-Sep-11 18:14S 33°49' E 026°51'1211.5
2014-Sep-11 17:12S 33°45' E 027°04'1910.9
2014-Sep-11 15:29S 33°36' E 027°24'12213.5
2014-Sep-11 06:25S 32°26' E 029°24'  

Dump ship's entire track history